Time;durP1;ratioP1;P1;durP2;ratioP2;P2;SDS_P1;SDS_P2;PMS_P1;PMS_P2;Temp;Humidity;BMP_temperature;BMP_pressure;BME280_temperature;BME280_humidity;BME280_pressure;Samples;Min_cycle;Max_cycle;Signal;HPM_P1;HPM_P2
2023/04/30 00:02:12;;;;;;;4.13;3.63;;;13.30;99.90;;;;;;4915455;29;20260;-62
2023/04/30 00:04:39;;;;;;;4.70;4.43;;;13.30;99.90;;;;;;4904183;29;20750;-62
2023/04/30 00:07:07;;;;;;;3.93;3.73;;;13.30;99.90;;;;;;4896032;29;20290;-62
2023/04/30 00:09:34;;;;;;;4.57;4.37;;;13.40;99.90;;;;;;4900857;29;20225;-61
2023/04/30 00:12:01;;;;;;;4.17;3.87;;;13.30;99.90;;;;;;4914072;29;20290;-62
2023/04/30 00:14:28;;;;;;;5.10;4.70;;;13.20;99.90;;;;;;4914852;29;20569;-61
2023/04/30 00:16:55;;;;;;;5.50;5.17;;;13.30;99.90;;;;;;4919402;29;20206;-62
2023/04/30 00:19:23;;;;;;;5.23;4.93;;;13.30;99.90;;;;;;4934421;29;20271;-62
2023/04/30 00:21:50;;;;;;;3.93;3.73;;;13.30;99.90;;;;;;4907760;29;20709;-62
2023/04/30 00:24:17;;;;;;;3.53;3.33;;;13.30;99.90;;;;;;4910531;29;20273;-62
2023/04/30 00:26:44;;;;;;;5.40;4.97;;;13.20;99.90;;;;;;4917173;29;20250;-62
2023/04/30 00:29:11;;;;;;;5.30;5.00;;;13.30;99.90;;;;;;4918064;29;20264;-61
2023/04/30 00:31:38;;;;;;;4.40;4.00;;;13.40;99.90;;;;;;4909548;29;22190;-62
2023/04/30 00:34:05;;;;;;;4.77;4.23;;;13.30;99.90;;;;;;4915847;29;20642;-62
2023/04/30 00:36:34;;;;;;;5.10;4.77;;;13.20;99.90;;;;;;4914830;29;20281;-61
2023/04/30 00:39:01;;;;;;;5.93;5.40;;;13.20;99.90;;;;;;4911454;29;20614;-61
2023/04/30 00:41:30;;;;;;;5.30;4.90;;;13.20;99.90;;;;;;4912866;29;20229;-61
2023/04/30 00:43:57;;;;;;;5.57;5.07;;;13.20;99.90;;;;;;4911376;29;20202;-62
2023/04/30 00:46:24;;;;;;;4.97;4.57;;;13.10;99.90;;;;;;4913818;29;20213;-62
2023/04/30 00:48:51;;;;;;;5.10;4.70;;;13.20;99.90;;;;;;4913816;29;20263;-62
2023/04/30 00:51:18;;;;;;;5.93;5.37;;;13.20;99.90;;;;;;4910611;29;20227;-61
2023/04/30 00:53:47;;;;;;;7.00;6.40;;;13.20;99.90;;;;;;4907516;29;20206;-62
2023/04/30 00:56:16;;;;;;;6.33;5.73;;;13.20;99.90;;;;;;4913734;29;20272;-61
2023/04/30 00:58:43;;;;;;;7.00;5.40;;;13.20;99.90;;;;;;4917031;29;20282;-61
2023/04/30 01:01:10;;;;;;;5.73;5.23;;;13.10;99.90;;;;;;4915511;29;20226;-61
2023/04/30 01:03:37;;;;;;;5.87;5.23;;;13.10;99.90;;;;;;4918240;29;20213;-62
2023/04/30 01:06:04;;;;;;;6.23;5.20;;;13.10;99.90;;;;;;4917739;29;20737;-62
2023/04/30 01:08:32;;;;;;;6.50;5.90;;;13.10;99.90;;;;;;4910516;29;20224;-62
2023/04/30 01:11:13;;;;;;;5.80;4.93;;;13.00;99.90;;;;;;4917930;29;20276;-62
2023/04/30 01:13:45;;;;;;;6.53;6.07;;;13.00;99.90;;;;;;4917452;29;20249;-62
2023/04/30 01:16:18;;;;;;;6.23;5.83;;;13.00;99.90;;;;;;4918401;29;20314;-62
2023/04/30 01:18:51;;;;;;;6.17;5.40;;;13.00;99.90;;;;;;4915726;29;20210;-61
2023/04/30 01:21:19;;;;;;;6.33;5.83;;;12.90;99.90;;;;;;4909499;29;20265;-62
2023/04/30 01:24:18;;;;;;;5.93;4.77;;;12.90;99.90;;;;;;4950812;23;20234;-59
2023/04/30 01:27:06;;;;;;;9.87;6.10;;;12.90;99.90;;;;;;4918070;29;20269;-59
2023/04/30 01:29:36;;;;;;;6.27;5.77;;;12.90;99.90;;;;;;4925144;29;20205;-59
2023/04/30 01:32:03;;;;;;;6.80;6.10;;;12.80;99.90;;;;;;4936771;29;20218;-59
2023/04/30 01:34:30;;;;;;;7.23;6.17;;;12.80;99.90;;;;;;4935181;29;20608;-58
2023/04/30 01:37:10;;;;;;;6.03;5.53;;;12.80;99.90;;;;;;4932329;29;20635;-59
2023/04/30 01:39:50;;;;;;;6.30;5.33;;;12.70;99.90;;;;;;4917538;29;20261;-59
2023/04/30 01:42:21;;;;;;;6.27;5.67;;;12.70;99.90;;;;;;4918659;29;20236;-59
2023/04/30 01:45:26;;;;;;;5.73;5.23;;;12.70;99.90;;;;;;4936328;29;20282;-59
2023/04/30 01:48:03;;;;;;;6.27;5.77;;;12.70;99.90;;;;;;4933125;29;20259;-59
2023/04/30 01:50:42;;;;;;;5.87;5.47;;;12.70;99.90;;;;;;4933522;29;20211;-58
2023/04/30 01:53:16;;;;;;;6.40;5.77;;;12.70;99.90;;;;;;4934521;29;20281;-59
2023/04/30 01:55:49;;;;;;;5.67;5.27;;;12.70;99.90;;;;;;4935995;29;20227;-59
2023/04/30 01:58:17;;;;;;;5.87;5.37;;;12.70;99.90;;;;;;4936274;29;20210;-59
2023/04/30 02:00:46;;;;;;;7.03;6.43;;;12.70;99.90;;;;;;4936152;29;20208;-59
2023/04/30 02:03:13;;;;;;;5.77;5.23;;;12.70;99.90;;;;;;4935700;29;20702;-59
2023/04/30 02:05:39;;;;;;;5.87;5.00;;;12.60;99.90;;;;;;4931392;29;20277;-59
2023/04/30 02:08:07;;;;;;;5.00;4.60;;;12.60;99.90;;;;;;4929993;29;20627;-59
2023/04/30 02:10:34;;;;;;;6.37;5.73;;;12.70;99.90;;;;;;4935996;29;20206;-59
2023/04/30 02:13:01;;;;;;;5.73;5.23;;;12.70;99.90;;;;;;4935521;29;20226;-59
2023/04/30 02:15:28;;;;;;;6.40;5.90;;;12.60;99.90;;;;;;4930767;29;20699;-59
2023/04/30 02:17:56;;;;;;;5.90;5.40;;;12.50;99.90;;;;;;4926609;29;20204;-59
2023/04/30 02:20:23;;;;;;;6.00;5.33;;;12.60;99.90;;;;;;4934135;29;20247;-59
2023/04/30 02:22:51;;;;;;;5.63;5.20;;;12.60;99.90;;;;;;4935168;29;20240;-59
2023/04/30 02:25:18;;;;;;;6.67;5.70;;;12.60;99.90;;;;;;4934548;29;20275;-59
2023/04/30 02:27:45;;;;;;;5.60;5.20;;;12.60;99.90;;;;;;4935537;29;20273;-59
2023/04/30 02:30:12;;;;;;;6.83;6.10;;;12.60;99.90;;;;;;4928839;29;20309;-59
2023/04/30 02:32:39;;;;;;;6.80;6.17;;;12.50;99.90;;;;;;4934211;29;20255;-59
2023/04/30 02:35:08;;;;;;;5.77;5.27;;;12.50;99.90;;;;;;4935413;29;20309;-59
2023/04/30 02:37:35;;;;;;;7.83;5.73;;;12.50;99.90;;;;;;4935514;29;20279;-60
2023/04/30 02:40:02;;;;;;;5.77;5.27;;;12.50;99.90;;;;;;4935457;29;20206;-59
2023/04/30 02:42:29;;;;;;;7.07;5.93;;;12.60;99.90;;;;;;4929990;29;20313;-59
2023/04/30 02:44:56;;;;;;;6.77;6.17;;;12.60;99.90;;;;;;4935134;29;20263;-59
2023/04/30 02:47:23;;;;;;;6.33;5.53;;;12.60;99.90;;;;;;4934279;29;20209;-58
2023/04/30 02:49:50;;;;;;;6.47;5.57;;;12.60;99.90;;;;;;4935203;29;20200;-59
2023/04/30 02:52:18;;;;;;;6.70;5.80;;;12.50;99.90;;;;;;4935049;29;20225;-59
2023/04/30 02:54:45;;;;;;;5.57;5.07;;;12.60;99.90;;;;;;4931372;29;20624;-59
2023/04/30 02:57:12;;;;;;;6.87;6.10;;;12.50;99.90;;;;;;4934938;29;20248;-59
2023/04/30 02:59:44;;;;;;;7.70;6.20;;;12.50;99.90;;;;;;4933994;29;20204;-58
2023/04/30 03:02:11;;;;;;;6.60;6.00;;;12.40;99.90;;;;;;4934084;29;20283;-59
2023/04/30 03:04:38;;;;;;;11.00;6.23;;;12.40;99.90;;;;;;4934777;29;20206;-59
2023/04/30 03:07:06;;;;;;;7.33;6.33;;;12.40;99.90;;;;;;4932876;29;20535;-59
2023/04/30 03:09:35;;;;;;;6.90;6.20;;;12.40;99.90;;;;;;4934821;29;20294;-59
2023/04/30 03:12:02;;;;;;;6.50;5.77;;;12.30;99.90;;;;;;4934611;29;20750;-59
2023/04/30 03:14:29;;;;;;;6.40;5.63;;;12.30;99.90;;;;;;4934918;29;20209;-59
2023/04/30 03:16:56;;;;;;;7.63;6.23;;;12.30;99.90;;;;;;4933823;29;20936;-59
2023/04/30 03:19:24;;;;;;;6.83;6.23;;;12.30;99.90;;;;;;4930051;29;20734;-59
2023/04/30 03:21:51;;;;;;;8.37;6.90;;;12.20;99.90;;;;;;4934410;29;20256;-59
2023/04/30 03:24:18;;;;;;;6.40;5.80;;;12.30;99.90;;;;;;4934410;29;20208;-59
2023/04/30 03:26:47;;;;;;;7.00;6.40;;;12.30;99.90;;;;;;4933166;29;20201;-59
2023/04/30 03:29:14;;;;;;;7.83;6.50;;;12.50;99.90;;;;;;4934324;29;20658;-59
2023/04/30 03:31:41;;;;;;;7.00;6.33;;;12.30;99.90;;;;;;4931283;29;20300;-59
2023/04/30 03:34:08;;;;;;;6.17;5.50;;;12.30;99.90;;;;;;4931427;29;20201;-59
2023/04/30 03:36:35;;;;;;;7.03;6.33;;;12.30;99.90;;;;;;4934296;29;20280;-59
2023/04/30 03:39:03;;;;;;;7.57;6.33;;;12.30;99.90;;;;;;4934378;29;20240;-59
2023/04/30 03:41:30;;;;;;;9.30;6.80;;;12.30;99.90;;;;;;4934166;29;20214;-59
2023/04/30 03:43:58;;;;;;;7.27;6.23;;;12.20;99.90;;;;;;4932308;29;20609;-59
2023/04/30 03:46:25;;;;;;;6.67;5.97;;;12.20;99.90;;;;;;4933006;29;20204;-60
2023/04/30 03:48:53;;;;;;;8.97;7.07;;;12.30;99.90;;;;;;4934103;29;20209;-59
2023/04/30 03:51:20;;;;;;;7.37;6.60;;;12.10;99.90;;;;;;4933467;29;20341;-59
2023/04/30 03:53:48;;;;;;;8.27;6.40;;;12.10;99.90;;;;;;4933746;29;20262;-59
2023/04/30 03:56:15;;;;;;;7.03;6.33;;;12.10;99.90;;;;;;4930935;29;20289;-59
2023/04/30 03:58:42;;;;;;;7.47;5.63;;;12.10;99.90;;;;;;4925402;29;20531;-59
2023/04/30 04:01:11;;;;;;;6.67;6.07;;;12.20;99.90;;;;;;4927842;29;20225;-59
2023/04/30 04:03:38;;;;;;;7.63;6.83;;;12.10;99.90;;;;;;4932565;29;20309;-59
2023/04/30 04:06:05;;;;;;;9.57;6.47;;;12.10;99.90;;;;;;4932645;29;20281;-59
2023/04/30 04:08:32;;;;;;;6.40;5.80;;;12.10;99.90;;;;;;4932753;29;20209;-59
2023/04/30 04:11:00;;;;;;;6.67;5.77;;;12.10;99.90;;;;;;4932719;29;20200;-59
2023/04/30 04:13:26;;;;;;;6.70;6.10;;;12.20;99.90;;;;;;4931902;29;20269;-59
2023/04/30 04:15:53;;;;;;;8.50;6.17;;;12.10;99.90;;;;;;4933037;29;20214;-60
2023/04/30 04:18:22;;;;;;;6.73;6.07;;;12.10;99.90;;;;;;4933258;29;20260;-60
2023/04/30 04:20:49;;;;;;;6.00;5.40;;;12.10;99.90;;;;;;4936422;29;20202;-59
2023/04/30 04:23:16;;;;;;;9.00;6.37;;;12.20;99.90;;;;;;4940160;29;20313;-61
2023/04/30 04:25:43;;;;;;;6.83;6.07;;;12.30;99.90;;;;;;4933012;29;20272;-59
2023/04/30 04:28:10;;;;;;;7.83;6.67;;;12.20;99.90;;;;;;4944582;29;20213;-59
2023/04/30 04:30:38;;;;;;;8.03;7.33;;;12.30;99.90;;;;;;4945394;29;20255;-59
2023/04/30 04:33:05;;;;;;;9.37;7.00;;;12.30;99.90;;;;;;4944005;29;20291;-59
2023/04/30 04:35:34;;;;;;;6.77;6.10;;;12.40;99.90;;;;;;4941976;29;20232;-59
2023/04/30 04:38:01;;;;;;;7.20;6.37;;;12.40;99.90;;;;;;4943653;29;20212;-59
2023/04/30 04:40:28;;;;;;;7.30;6.47;;;12.50;99.90;;;;;;4942532;29;20205;-59
2023/04/30 04:42:55;;;;;;;6.07;5.47;;;12.50;99.90;;;;;;4940309;29;20230;-59
2023/04/30 04:45:22;;;;;;;7.67;6.10;;;12.50;99.90;;;;;;4932399;29;20209;-59
2023/04/30 04:47:49;;;;;;;7.40;6.10;;;12.50;99.90;;;;;;4928821;29;20264;-60
2023/04/30 04:50:16;;;;;;;6.27;5.57;;;12.50;99.90;;;;;;4932043;29;20628;-59
2023/04/30 04:52:45;;;;;;;7.20;6.50;;;12.60;99.90;;;;;;4933476;29;20251;-59
2023/04/30 04:55:12;;;;;;;6.53;5.93;;;12.50;99.90;;;;;;4926800;29;20213;-59
2023/04/30 04:57:40;;;;;;;6.37;5.77;;;12.60;99.90;;;;;;4931104;29;20572;-60
2023/04/30 05:00:09;;;;;;;6.77;6.07;;;12.70;99.90;;;;;;4932208;29;20215;-59
2023/04/30 05:02:36;;;;;;;7.73;6.10;;;12.60;99.90;;;;;;4931482;29;20284;-59
2023/04/30 05:05:03;;;;;;;7.77;6.80;;;12.60;99.90;;;;;;4926759;29;20263;-59
2023/04/30 05:07:30;;;;;;;6.70;6.10;;;12.70;99.90;;;;;;4932090;29;20246;-59
2023/04/30 05:09:59;;;;;;;8.70;6.70;;;12.60;99.90;;;;;;4933848;29;20205;-59
2023/04/30 05:12:29;;;;;;;7.10;6.40;;;12.70;99.90;;;;;;4935666;29;20221;-59
2023/04/30 05:14:56;;;;;;;8.10;6.83;;;12.80;99.90;;;;;;4935307;29;20253;-59
2023/04/30 05:17:25;;;;;;;8.30;7.33;;;12.90;99.90;;;;;;4932866;29;20257;-59
2023/04/30 05:19:53;;;;;;;7.97;7.17;;;13.00;99.90;;;;;;4935764;29;20198;-59
2023/04/30 05:22:20;;;;;;;7.47;5.93;;;13.30;99.90;;;;;;4935394;29;20317;-59
2023/04/30 05:24:47;;;;;;;6.10;5.57;;;13.70;99.90;;;;;;4930747;29;20212;-59
2023/04/30 05:27:16;;;;;;;8.00;7.20;;;14.30;99.90;;;;;;4931396;29;20197;-59
2023/04/30 05:29:43;;;;;;;6.03;5.43;;;14.80;99.90;;;;;;4936228;29;20291;-59
2023/04/30 05:32:10;;;;;;;7.10;6.03;;;15.50;99.90;;;;;;4934202;29;20588;-59
2023/04/30 05:34:37;;;;;;;6.53;5.70;;;16.10;99.90;;;;;;4931598;29;20210;-59
2023/04/30 05:37:04;;;;;;;6.60;5.97;;;16.70;99.90;;;;;;4934915;29;20245;-60
2023/04/30 05:39:31;;;;;;;5.87;5.37;;;17.40;99.90;;;;;;4934545;29;20265;-59
2023/04/30 05:41:58;;;;;;;6.57;6.03;;;18.20;99.90;;;;;;4932624;29;20256;-60
2023/04/30 05:44:29;;;;;;;6.10;5.40;;;18.40;99.90;;;;;;4929151;29;20277;-59
2023/04/30 05:46:56;;;;;;;6.70;6.00;;;18.60;99.90;;;;;;4931862;29;20205;-59
2023/04/30 05:49:23;;;;;;;5.97;5.50;;;18.00;99.90;;;;;;4936308;29;20280;-59
2023/04/30 05:51:49;;;;;;;5.97;5.57;;;17.60;99.90;;;;;;4936118;29;20210;-59
2023/04/30 05:54:16;;;;;;;6.87;6.27;;;17.70;99.90;;;;;;4935897;29;20206;-59
2023/04/30 05:56:43;;;;;;;6.37;5.87;;;17.60;99.90;;;;;;4928820;29;20304;-59
2023/04/30 05:59:10;;;;;;;6.87;6.30;;;17.70;99.90;;;;;;4932058;29;20198;-59
2023/04/30 06:01:38;;;;;;;7.17;6.50;;;17.10;99.90;;;;;;4917196;29;20214;-60
2023/04/30 06:04:05;;;;;;;7.07;6.47;;;17.00;99.90;;;;;;4916179;29;20776;-59
2023/04/30 06:06:32;;;;;;;6.80;5.60;;;17.70;99.90;;;;;;4932815;29;20561;-60
2023/04/30 06:08:59;;;;;;;6.30;5.37;;;18.40;99.90;;;;;;4934536;29;20628;-59
2023/04/30 06:11:26;;;;;;;7.63;6.93;;;18.80;99.90;;;;;;4931474;29;20245;-59
2023/04/30 06:13:53;;;;;;;6.27;5.77;;;19.30;99.90;;;;;;4933366;29;20226;-59
2023/04/30 06:16:20;;;;;;;8.13;7.40;;;19.50;99.90;;;;;;4930139;29;20273;-59
2023/04/30 06:18:48;;;;;;;7.50;6.80;;;19.40;99.90;;;;;;4917869;29;20202;-59
2023/04/30 06:21:15;;;;;;;8.07;5.97;;;18.50;99.90;;;;;;4934226;29;20214;-60
2023/04/30 06:23:42;;;;;;;7.40;6.80;;;18.60;99.90;;;;;;4935069;29;20661;-60
2023/04/30 06:26:09;;;;;;;6.90;6.30;;;19.10;99.90;;;;;;4935487;29;20265;-58
2023/04/30 06:28:36;;;;;;;6.67;6.07;;;19.10;99.90;;;;;;4935763;29;20209;-60
2023/04/30 06:31:03;;;;;;;6.20;5.57;;;19.80;99.90;;;;;;4934216;29;20202;-60
2023/04/30 06:33:30;;;;;;;6.23;5.83;;;21.00;99.90;;;;;;4935100;29;20217;-60
2023/04/30 06:35:58;;;;;;;5.63;5.13;;;21.80;99.90;;;;;;4931395;29;20211;-60
2023/04/30 06:38:25;;;;;;;6.60;6.07;;;22.10;99.90;;;;;;4935037;29;20257;-60
2023/04/30 06:40:52;;;;;;;6.47;6.07;;;22.20;99.90;;;;;;4935564;29;20202;-60
2023/04/30 06:43:19;;;;;;;6.23;5.63;;;22.00;99.90;;;;;;4935317;29;20671;-59
2023/04/30 06:45:46;;;;;;;6.10;5.60;;;21.60;99.90;;;;;;4935220;29;20254;-59
2023/04/30 06:48:13;;;;;;;6.30;5.70;;;21.20;99.90;;;;;;4935355;29;20246;-58
2023/04/30 06:50:43;;;;;;;5.63;5.13;;;21.00;99.90;;;;;;4933003;29;20256;-59
2023/04/30 06:53:12;;;;;;;7.33;6.73;;;21.00;99.90;;;;;;4926795;29;20265;-58
2023/04/30 06:55:39;;;;;;;4.87;4.57;;;21.30;99.90;;;;;;4934643;29;20262;-59
2023/04/30 06:58:06;;;;;;;4.90;4.60;;;21.60;99.90;;;;;;4933510;29;20233;-59
2023/04/30 07:00:34;;;;;;;5.33;4.93;;;22.10;99.90;;;;;;4930353;29;20735;-59
2023/04/30 07:03:02;;;;;;;5.97;5.47;;;22.60;99.90;;;;;;4928217;29;20315;-59
2023/04/30 07:05:29;;;;;;;5.13;4.70;;;23.50;99.90;;;;;;4931797;29;20210;-59
2023/04/30 07:07:56;;;;;;;5.60;5.20;;;23.20;99.90;;;;;;4934602;29;20264;-59
2023/04/30 07:10:25;;;;;;;4.67;4.37;;;22.60;99.90;;;;;;4926352;29;20907;-59
2023/04/30 07:12:52;;;;;;;4.77;4.37;;;22.90;99.90;;;;;;4934317;29;20276;-59
2023/04/30 07:15:18;;;;;;;4.30;4.10;;;23.20;99.90;;;;;;4934465;29;20206;-59
2023/04/30 07:17:45;;;;;;;4.90;4.67;;;23.70;99.90;;;;;;4934417;29;20226;-59
2023/04/30 07:20:14;;;;;;;5.10;4.67;;;23.80;99.90;;;;;;4932287;29;20257;-59
2023/04/30 07:22:43;;;;;;;5.40;5.00;;;23.80;99.90;;;;;;4929604;29;20594;-59
2023/04/30 07:25:10;;;;;;;6.53;4.60;;;23.30;99.90;;;;;;4931111;29;20668;-59
2023/04/30 07:27:38;;;;;;;4.93;4.73;;;23.70;99.90;;;;;;4928562;29;20262;-60
2023/04/30 07:30:07;;;;;;;8.30;5.43;;;24.00;99.90;;;;;;4933646;29;20214;-60
2023/04/30 07:32:35;;;;;;;4.83;4.43;;;24.50;99.90;;;;;;4932825;29;20217;-60
2023/04/30 07:35:02;;;;;;;5.23;4.93;;;24.70;99.90;;;;;;4933939;29;20197;-60
2023/04/30 07:37:29;;;;;;;5.17;4.87;;;24.40;99.90;;;;;;4933758;29;20719;-60
2023/04/30 07:39:56;;;;;;;6.73;6.07;;;24.40;99.90;;;;;;4932423;29;20214;-60
2023/04/30 07:42:23;;;;;;;4.63;4.33;;;23.60;99.90;;;;;;4932992;29;20226;-60
2023/04/30 07:44:52;;;;;;;6.07;5.57;;;23.50;99.90;;;;;;4933553;29;20202;-60
2023/04/30 07:47:19;;;;;;;5.57;5.17;;;23.70;99.90;;;;;;4933545;29;20198;-60
2023/04/30 07:49:47;;;;;;;4.40;4.20;;;23.30;99.90;;;;;;4934799;29;20289;-60
2023/04/30 07:52:14;;;;;;;5.27;4.97;;;23.60;99.90;;;;;;4924748;29;20658;-60
2023/04/30 07:54:41;;;;;;;4.70;4.40;;;23.80;99.90;;;;;;4931228;29;20837;-60
2023/04/30 07:57:08;;;;;;;4.67;4.27;;;24.10;99.90;;;;;;4932596;29;20210;-60
2023/04/30 07:59:35;;;;;;;3.50;3.40;;;24.40;99.90;;;;;;4930334;29;20253;-60
2023/04/30 08:02:03;;;;;;;4.83;4.40;;;24.80;99.90;;;;;;4932106;29;20210;-60
2023/04/30 08:04:30;;;;;;;3.87;3.77;;;24.60;99.90;;;;;;4932536;29;20205;-60
2023/04/30 08:06:57;;;;;;;4.77;4.47;;;25.00;99.90;;;;;;4932651;29;20285;-60
2023/04/30 08:09:24;;;;;;;3.50;3.40;;;25.30;99.90;;;;;;4932910;29;20193;-60
2023/04/30 08:11:51;;;;;;;4.33;3.60;;;25.10;99.90;;;;;;4930513;29;20979;-60
2023/04/30 08:14:19;;;;;;;4.27;3.93;;;24.90;99.90;;;;;;4932127;29;20229;-60
2023/04/30 08:16:46;;;;;;;4.20;3.80;;;25.30;99.90;;;;;;4929530;29;20218;-60
2023/04/30 08:19:14;;;;;;;2.90;2.87;;;25.60;99.90;;;;;;4932474;29;20253;-59
2023/04/30 08:21:41;;;;;;;3.27;3.17;;;25.40;99.90;;;;;;4932711;29;20273;-60
2023/04/30 08:24:08;;;;;;;3.83;3.57;;;24.30;99.90;;;;;;4932164;29;20201;-60
2023/04/30 08:26:35;;;;;;;2.93;2.83;;;24.30;99.90;;;;;;4932569;29;20206;-59
2023/04/30 08:29:02;;;;;;;3.37;3.23;;;23.30;99.90;;;;;;4928564;29;20265;-60
2023/04/30 08:31:29;;;;;;;4.77;4.47;;;23.20;99.90;;;;;;4932575;29;20256;-59
2023/04/30 08:33:56;;;;;;;3.80;3.70;;;23.70;99.90;;;;;;4928939;29;20298;-60
2023/04/30 08:36:26;;;;;;;3.43;3.33;;;23.80;99.90;;;;;;4932346;29;20206;-60
2023/04/30 08:38:53;;;;;;;4.07;3.80;;;23.60;99.90;;;;;;4932378;29;20320;-60
2023/04/30 08:41:25;;;;;;;3.60;3.50;;;23.90;99.90;;;;;;4932215;29;20234;-60
2023/04/30 08:43:53;;;;;;;4.03;3.83;;;24.30;99.90;;;;;;4927465;29;20265;-60
2023/04/30 08:46:22;;;;;;;4.77;4.53;;;24.10;99.90;;;;;;4936642;29;20289;-60
2023/04/30 08:48:49;;;;;;;4.00;3.60;;;24.70;99.90;;;;;;4937273;28;20194;-60
2023/04/30 08:51:16;;;;;;;4.27;4.03;;;25.20;99.90;;;;;;4935832;29;20555;-60
2023/04/30 08:53:45;;;;;;;3.60;3.50;;;25.50;99.90;;;;;;4935671;29;20274;-60
2023/04/30 08:56:12;;;;;;;3.50;3.40;;;25.20;99.90;;;;;;4935745;29;20676;-60
2023/04/30 08:58:42;;;;;;;2.80;2.70;;;25.00;99.90;;;;;;4935960;29;20426;-60
2023/04/30 09:01:10;;;;;;;3.47;3.27;;;25.10;99.90;;;;;;4934337;29;20206;-60
2023/04/30 09:03:37;;;;;;;3.63;3.33;;;25.00;99.90;;;;;;4934974;29;20268;-60
2023/04/30 09:06:04;;;;;;;3.10;3.00;;;24.80;99.90;;;;;;4935018;29;20683;-60
2023/04/30 09:08:46;;;;;;;3.17;3.07;;;24.80;99.90;;;;;;4935496;29;20627;-60
2023/04/30 09:11:24;;;;;;;2.90;2.77;;;24.90;99.90;;;;;;4935744;29;20800;-60
2023/04/30 09:13:52;;;;;;;4.00;3.80;;;24.60;99.90;;;;;;4931451;29;20221;-59
2023/04/30 09:16:19;;;;;;;3.23;3.13;;;24.00;99.90;;;;;;4936558;29;20587;-59
2023/04/30 09:18:47;;;;;;;3.30;3.10;;;24.00;99.90;;;;;;4929924;29;20222;-60
2023/04/30 09:21:14;;;;;;;2.90;2.80;;;23.80;99.90;;;;;;4935343;29;20194;-60
2023/04/30 09:23:56;;;;;;;2.90;2.70;;;24.20;99.90;;;;;;4934594;29;20626;-60
2023/04/30 09:26:28;;;;;;;2.67;2.57;;;24.20;99.90;;;;;;4935417;29;20202;-59
2023/04/30 09:28:57;;;;;;;3.33;3.23;;;24.00;99.90;;;;;;4935240;29;20250;-60
2023/04/30 09:31:24;;;;;;;3.05;2.88;;;23.70;99.90;;;;;;4931231;29;20651;-57
2023/04/30 09:33:53;;;;;;;3.27;3.13;;;22.80;99.90;;;;;;4934123;29;20304;-62
2023/04/30 09:36:20;;;;;;;2.23;2.13;;;23.40;99.90;;;;;;4934060;29;20289;-60
2023/04/30 09:38:47;;;;;;;2.17;2.07;;;23.60;99.90;;;;;;4936208;29;20261;-60
2023/04/30 09:41:26;;;;;;;2.57;2.47;;;23.50;99.90;;;;;;4934345;29;20213;-61
2023/04/30 09:43:54;;;;;;;3.07;2.77;;;23.90;99.90;;;;;;4935324;29;20217;-62
2023/04/30 09:46:22;;;;;;;2.40;2.30;;;24.10;99.90;;;;;;4935525;29;20202;-60
2023/04/30 09:48:57;;;;;;;2.67;2.53;;;23.50;99.90;;;;;;4935292;29;20812;-60
2023/04/30 09:51:25;;;;;;;2.33;2.20;;;23.20;99.90;;;;;;4933015;29;20205;-60
2023/04/30 09:53:53;;;;;;;2.87;2.77;;;22.80;99.90;;;;;;4919552;29;20226;-61
2023/04/30 09:56:22;;;;;;;2.30;2.20;;;22.30;99.90;;;;;;4931588;29;20206;-61
2023/04/30 09:58:53;;;;;;;2.23;2.13;;;21.50;99.90;;;;;;4934544;29;20226;-62
2023/04/30 10:01:21;;;;;;;1.97;1.97;;;20.90;99.90;;;;;;4935883;29;20206;-60
2023/04/30 10:03:49;;;;;;;1.77;1.77;;;19.90;99.90;;;;;;4933308;29;20280;-63
2023/04/30 10:06:17;;;;;;;2.30;2.20;;;20.40;99.90;;;;;;4928865;29;20214;-63
2023/04/30 10:08:48;;;;;;;2.97;2.77;;;21.30;99.90;;;;;;4934169;29;20246;-63
2023/04/30 10:11:20;;;;;;;1.90;1.80;;;21.70;99.90;;;;;;4934473;29;20210;-63
2023/04/30 10:13:54;;;;;;;1.63;1.63;;;21.70;99.90;;;;;;4929938;29;20242;-63
2023/04/30 10:16:29;;;;;;;1.90;1.90;;;21.40;99.90;;;;;;4931167;29;20540;-62
2023/04/30 10:19:00;;;;;;;2.13;2.13;;;21.10;99.90;;;;;;4934432;29;20280;-61
2023/04/30 10:21:28;;;;;;;2.23;2.03;;;20.80;99.90;;;;;;4933095;29;20217;-62
2023/04/30 10:23:55;;;;;;;2.70;2.50;;;20.80;99.90;;;;;;4934308;29;20790;-61
2023/04/30 10:26:23;;;;;;;2.20;2.10;;;21.60;99.90;;;;;;4935498;29;20225;-63
2023/04/30 10:28:53;;;;;;;1.97;1.87;;;21.90;99.90;;;;;;4927566;29;20226;-61
2023/04/30 10:31:21;;;;;;;2.73;2.63;;;21.60;99.90;;;;;;4927830;29;20279;-61
2023/04/30 10:33:58;;;;;;;2.03;1.92;;;21.90;99.90;;;;;;4927758;29;20504;-58
2023/04/30 10:36:33;;;;;;;1.97;1.87;;;22.60;99.90;;;;;;4933728;29;20194;-59
2023/04/30 10:39:01;;;;;;;1.73;1.73;;;23.00;99.90;;;;;;4933565;29;20217;-58
2023/04/30 10:41:28;;;;;;;2.00;1.80;;;22.80;99.90;;;;;;4933861;29;20206;-58
2023/04/30 10:43:58;;;;;;;2.37;2.00;;;22.20;99.90;;;;;;4933441;29;20228;-58
2023/04/30 10:46:27;;;;;;;1.63;1.63;;;21.50;99.90;;;;;;4931175;29;20198;-58
2023/04/30 10:48:54;;;;;;;1.20;1.20;;;21.30;99.90;;;;;;4933053;29;20229;-61
2023/04/30 10:51:22;;;;;;;1.50;1.50;;;21.20;99.90;;;;;;4933709;29;20214;-63
2023/04/30 10:53:51;;;;;;;1.90;1.80;;;21.10;99.90;;;;;;4933343;29;20300;-63
2023/04/30 10:56:31;;;;;;;1.90;1.90;;;21.50;99.90;;;;;;4933437;29;20573;-63
2023/04/30 10:59:01;;;;;;;1.60;1.50;;;21.40;99.90;;;;;;4933242;29;20218;-63
2023/04/30 11:01:29;;;;;;;1.70;1.70;;;21.40;99.90;;;;;;4931291;29;20684;-63
2023/04/30 11:04:07;;;;;;;1.60;1.60;;;21.50;99.90;;;;;;4932897;29;20771;-63
2023/04/30 11:06:55;;;;;;;1.87;1.70;;;21.00;99.90;;;;;;4931789;29;20210;-62
2023/04/30 11:09:36;;;;;;;1.83;1.73;;;20.60;99.90;;;;;;4934410;29;20202;-62
2023/04/30 11:12:04;;;;;;;1.97;1.50;;;20.10;99.90;;;;;;4931244;29;20224;-61
2023/04/30 11:14:33;;;;;;;1.23;1.23;;;20.00;99.90;;;;;;4933352;29;20712;-62
2023/04/30 11:17:01;;;;;;;1.47;1.47;;;19.60;99.90;;;;;;4929488;29;20197;-63
2023/04/30 11:19:29;;;;;;;1.40;1.40;;;19.60;99.90;;;;;;4923257;29;20230;-63
2023/04/30 11:22:16;;;;;;;1.00;1.00;;;19.90;99.90;;;;;;4930189;29;20293;-62
2023/04/30 11:25:04;;;;;;;1.57;1.57;;;20.10;99.90;;;;;;4932574;29;20213;-61
2023/04/30 11:27:32;;;;;;;1.73;1.63;;;20.20;99.90;;;;;;4933095;29;20220;-57
2023/04/30 11:30:00;;;;;;;1.90;1.63;;;20.30;99.90;;;;;;4932962;29;20201;-58
2023/04/30 11:32:34;;;;;;;1.43;1.43;;;20.50;99.90;;;;;;4932766;29;20273;-58
2023/04/30 11:35:02;;;;;;;1.10;1.10;;;20.70;99.90;;;;;;4931452;29;20201;-57
2023/04/30 11:37:33;;;;;;;1.37;1.37;;;20.50;99.90;;;;;;4933448;29;20198;-62
2023/04/30 11:40:02;;;;;;;1.40;1.30;;;20.40;99.90;;;;;;4923485;29;20266;-62
2023/04/30 11:42:33;;;;;;;1.67;1.57;;;20.60;99.90;;;;;;4914762;29;20527;-62
2023/04/30 11:45:05;;;;;;;2.30;1.60;;;20.80;99.90;;;;;;4915124;29;20217;-63
2023/04/30 11:47:44;;;;;;;1.67;1.53;;;21.20;99.90;;;;;;4915246;29;20261;-61
2023/04/30 11:50:13;;;;;;;1.57;1.57;;;20.90;99.90;;;;;;4914741;29;20404;-62
2023/04/30 11:52:40;;;;;;;1.27;1.17;;;21.10;99.90;;;;;;4932141;29;20222;-62
2023/04/30 11:55:14;;;;;;;1.20;1.20;;;20.70;99.90;;;;;;4933650;29;20675;-62
2023/04/30 11:57:42;;;;;;;1.83;1.83;;;20.80;99.90;;;;;;4917870;29;20420;-62
2023/04/30 12:00:14;;;;;;;1.10;1.10;;;21.00;99.90;;;;;;4914827;29;20291;-63
2023/04/30 12:02:44;;;;;;;1.47;1.40;;;20.90;99.90;;;;;;4914375;29;20470;-62
2023/04/30 12:05:16;;;;;;;1.20;1.20;;;21.00;99.90;;;;;;4914474;29;20211;-63
2023/04/30 12:07:50;;;;;;;1.37;1.37;;;21.30;99.90;;;;;;4916523;29;20203;-62
2023/04/30 12:10:20;;;;;;;1.90;1.30;;;21.30;99.90;;;;;;4931144;29;20202;-61
2023/04/30 12:12:48;;;;;;;1.20;1.20;;;21.30;99.90;;;;;;4932207;29;20230;-58
2023/04/30 12:15:17;;;;;;;1.67;1.67;;;21.10;99.90;;;;;;4914759;29;20231;-58
2023/04/30 12:17:46;;;;;;;3.53;1.63;;;21.20;99.90;;;;;;4915967;29;20262;-58
2023/04/30 12:20:15;;;;;;;1.40;1.40;;;21.00;99.90;;;;;;4918910;29;20282;-58
2023/04/30 12:22:42;;;;;;;1.50;1.50;;;21.00;99.90;;;;;;4930395;29;20240;-58
2023/04/30 12:25:13;;;;;;;1.67;1.57;;;21.20;99.90;;;;;;4937054;29;20220;-58
2023/04/30 12:27:41;;;;;;;1.00;1.00;;;21.00;99.90;;;;;;4936241;29;20198;-58
2023/04/30 12:30:09;;;;;;;4.10;1.30;;;20.90;99.90;;;;;;4933586;29;20277;-58
2023/04/30 12:32:41;;;;;;;1.00;1.00;;;21.10;99.90;;;;;;4931423;29;20283;-58
2023/04/30 12:35:13;;;;;;;1.43;1.43;;;21.10;99.90;;;;;;4936105;29;20661;-58
2023/04/30 12:37:43;;;;;;;1.30;1.30;;;21.00;99.90;;;;;;4933974;29;20273;-58
2023/04/30 12:40:11;;;;;;;2.10;1.63;;;20.70;99.90;;;;;;4936114;29;20194;-58
2023/04/30 12:42:38;;;;;;;2.37;1.97;;;20.90;99.90;;;;;;4935650;29;20300;-58
2023/04/30 12:45:06;;;;;;;1.83;1.73;;;21.10;99.90;;;;;;4935909;29;20292;-58
2023/04/30 12:47:37;;;;;;;2.30;2.20;;;21.20;99.90;;;;;;4935038;29;20253;-58
2023/04/30 12:50:07;;;;;;;2.50;1.33;;;21.10;99.90;;;;;;4936493;29;20194;-58
2023/04/30 12:52:35;;;;;;;2.63;1.37;;;21.10;99.90;;;;;;4933494;29;20360;-58
2023/04/30 12:55:15;;;;;;;2.03;1.93;;;21.40;99.90;;;;;;4935832;29;20234;-58
2023/04/30 12:57:42;;;;;;;1.63;1.63;;;21.40;99.90;;;;;;4935875;29;20315;-58